Hlavní strana
METAR-TAF:

METAR-TAF

Letiště :

Barkley Regional Airport

Paducah, Kentucky, Spojené státy americké

zeměpisná šířka: 37-03-23N, zeměpisná délka: 088-46-26W, výška: 125 m

Aktuální stav počasí

Zpráva byla vytvořena před 34 minutami, v 08:53 UTC
Bezvětří
Teplota 14°C
Vlhkost vzduchu 82%
Tlak 1020 hPa
Viditelnost: 16.1 km
Jasno

METAR: KPAH 300853Z AUTO 00000KT 10SM CLR 14/11 A3013 RMK AO2 SLP199 T01390111 53006

Čas: 04:27 (09:27 UTC)

Předpověď počasí

Zpráva byla vytvořena před 4 hodinami a 7 minutami, v 05:20 UTC
Předpověď platná od 30 v 06 UTC do 31 v 06 UTC
vítr z různých směrů 4 kt
Viditelnost: 10 km
Jasno
Od 30 v 1300 UTC
Severní vítr 6 kt
Viditelnost: 10 km
Jasno

TAF: KPAH 300520Z 3006/3106 VRB04KT P6SM SKC FM301300 35006KT P6SM SKC

Stav a předpovědi počasí z více než 4 000 letišť (zprávy METAR a TAF).

Červené a žluté tečky na mapě představují dostupné meteorologické stanice.

Když kurzor umístíte na tečku, zobrazí se název stanice.

Pak kliknutím zobrazíte stav a předpověď počasí.

Chcete-li změnit mapu, kliknutím na zelené tlačítko se znaménkem +mapu přiblížíte, kliknutím na zelené tlačítko se znaménkem – mapu oddálíte a kliknutím na zelené šipky přejdete na sousední mapy.


METAR-TAF: